createdAt,value
2023-01-05T00:01:53.944Z,21.00
2023-01-05T00:04:21.619Z,21.00
2023-01-05T00:06:49.741Z,21.00
2023-01-05T00:09:19.397Z,21.00
2023-01-05T00:12:05.744Z,21.00
2023-01-05T00:14:53.075Z,21.00
2023-01-05T00:17:41.773Z,21.00
2023-01-05T00:20:36.044Z,21.00
2023-01-05T00:23:04.477Z,21.00
2023-01-05T00:25:37.460Z,21.00
2023-01-05T00:28:05.167Z,21.00
2023-01-05T00:30:50.820Z,21.00
2023-01-05T00:33:18.699Z,21.00
2023-01-05T00:35:46.408Z,21.00
2023-01-05T00:38:13.894Z,21.00
2023-01-05T00:40:41.584Z,21.00
2023-01-05T00:43:09.339Z,21.00
2023-01-05T00:45:36.984Z,21.00
2023-01-05T00:48:05.179Z,21.00
2023-01-05T00:50:32.704Z,21.00
2023-01-05T00:53:02.000Z,21.00
2023-01-05T00:55:29.801Z,21.00
2023-01-05T00:57:57.617Z,21.00
2023-01-05T01:00:25.131Z,21.00
2023-01-05T01:02:55.631Z,21.00
2023-01-05T01:05:23.386Z,21.00
2023-01-05T01:07:51.058Z,21.00
2023-01-05T01:10:18.929Z,21.00
2023-01-05T01:12:46.450Z,21.00
2023-01-05T01:15:14.034Z,21.00
2023-01-05T01:17:42.996Z,21.00
2023-01-05T01:20:10.911Z,21.00
2023-01-05T01:22:38.929Z,21.00
2023-01-05T01:25:08.638Z,21.00
2023-01-05T01:27:36.099Z,21.00
2023-01-05T01:30:06.712Z,21.00
2023-01-05T01:32:34.112Z,21.00
2023-01-05T01:35:01.948Z,21.00
2023-01-05T01:37:29.741Z,21.00
2023-01-05T01:39:58.538Z,21.00
2023-01-05T01:42:26.449Z,21.00
2023-01-05T01:44:59.114Z,21.00
2023-01-05T01:47:51.731Z,20.90
2023-01-05T01:50:35.453Z,20.90
2023-01-05T01:53:21.640Z,20.90
2023-01-05T01:55:50.168Z,20.90
2023-01-05T01:58:20.240Z,21.00
2023-01-05T02:00:48.444Z,20.90
2023-01-05T02:03:16.252Z,20.90
2023-01-05T02:05:43.972Z,20.90
2023-01-05T02:08:14.452Z,20.90
2023-01-05T02:11:06.332Z,20.90
2023-01-05T02:13:50.696Z,20.90
2023-01-05T02:16:36.104Z,20.90
2023-01-05T02:19:38.693Z,20.90
2023-01-05T02:22:52.031Z,20.90
2023-01-05T02:26:11.654Z,20.90
2023-01-05T02:29:23.652Z,20.90
2023-01-05T02:32:36.986Z,20.90
2023-01-05T02:35:43.969Z,20.90
2023-01-05T02:38:39.570Z,20.90
2023-01-05T02:41:36.456Z,20.90
2023-01-05T02:44:08.809Z,20.90
2023-01-05T02:46:36.973Z,20.90
2023-01-05T02:49:06.519Z,20.90
2023-01-05T02:51:39.352Z,20.90
2023-01-05T02:54:42.416Z,20.90
2023-01-05T02:57:46.721Z,20.90
2023-01-05T03:00:27.431Z,20.90
2023-01-05T03:03:10.149Z,20.90
2023-01-05T03:06:04.706Z,20.90
2023-01-05T03:08:41.158Z,20.90
2023-01-05T03:11:30.248Z,20.90
2023-01-05T03:14:37.011Z,20.90
2023-01-05T03:17:07.817Z,20.90
2023-01-05T03:19:44.652Z,20.90
2023-01-05T03:22:49.860Z,20.90
2023-01-05T03:25:41.008Z,20.90
2023-01-05T03:28:36.085Z,20.90
2023-01-05T03:31:44.684Z,20.90
2023-01-05T03:34:44.264Z,20.90
2023-01-05T03:37:22.562Z,20.90
2023-01-05T03:39:50.530Z,20.90
2023-01-05T03:42:18.728Z,20.90
2023-01-05T03:44:47.318Z,20.90
2023-01-05T03:47:18.517Z,20.90
2023-01-05T03:49:47.521Z,20.90
2023-01-05T03:52:15.001Z,20.90
2023-01-05T03:54:43.533Z,20.90
2023-01-05T03:57:11.006Z,20.80
2023-01-05T03:59:39.405Z,20.90
2023-01-05T04:02:07.035Z,20.90
2023-01-05T04:04:34.601Z,20.90
2023-01-05T04:07:07.611Z,20.80
2023-01-05T04:09:36.012Z,20.80
2023-01-05T04:12:04.837Z,20.90
2023-01-05T04:14:36.334Z,20.90
2023-01-05T04:17:04.340Z,20.80
2023-01-05T04:19:31.988Z,20.80
2023-01-05T04:21:59.796Z,20.90
2023-01-05T04:24:33.027Z,20.90
2023-01-05T04:27:02.924Z,20.90
2023-01-05T04:29:31.012Z,20.80
2023-01-05T04:32:00.448Z,20.80
2023-01-05T04:34:28.113Z,20.90
2023-01-05T04:36:57.787Z,20.90
2023-01-05T04:39:25.757Z,20.90
2023-01-05T04:41:54.760Z,20.90
2023-01-05T04:44:22.240Z,20.90
2023-01-05T04:46:50.873Z,20.90
2023-01-05T04:49:19.923Z,20.80
2023-01-05T04:51:50.187Z,20.90
2023-01-05T04:54:20.342Z,20.90
2023-01-05T04:56:48.020Z,20.90
2023-01-05T04:59:15.429Z,20.90
2023-01-05T05:01:44.567Z,20.90
2023-01-05T05:04:14.090Z,20.90
2023-01-05T05:06:41.715Z,20.90
2023-01-05T05:09:09.213Z,20.90
2023-01-05T05:11:38.646Z,20.90
2023-01-05T05:14:06.437Z,20.80
2023-01-05T05:16:34.295Z,20.90
2023-01-05T05:19:02.250Z,20.90
2023-01-05T05:21:29.679Z,20.90
2023-01-05T05:23:57.984Z,20.80
2023-01-05T05:26:25.466Z,20.80
2023-01-05T05:28:52.909Z,20.80
2023-01-05T05:31:20.496Z,20.90
2023-01-05T05:33:47.938Z,20.90
2023-01-05T05:36:15.927Z,20.80
2023-01-05T05:38:43.747Z,20.90
2023-01-05T05:41:11.333Z,20.90
2023-01-05T05:43:39.269Z,20.80
2023-01-05T05:46:06.836Z,20.80
2023-01-05T05:48:34.384Z,20.80
2023-01-05T05:51:01.701Z,20.80
2023-01-05T05:53:29.198Z,20.80
2023-01-05T05:55:56.575Z,20.80
2023-01-05T05:58:24.236Z,20.80
2023-01-05T06:00:52.327Z,20.80
2023-01-05T06:03:19.779Z,20.80
2023-01-05T06:05:47.331Z,20.90
2023-01-05T06:08:14.895Z,20.90
2023-01-05T06:10:42.326Z,20.90
2023-01-05T06:13:10.197Z,20.90
2023-01-05T06:15:37.657Z,20.80
2023-01-05T06:18:05.294Z,20.80
2023-01-05T06:20:33.094Z,20.80
2023-01-05T06:23:00.725Z,20.80
2023-01-05T06:25:28.489Z,20.80
2023-01-05T06:27:55.871Z,20.80
2023-01-05T06:30:23.409Z,20.80
2023-01-05T06:32:51.057Z,20.90
2023-01-05T06:35:18.551Z,20.80
2023-01-05T06:37:46.248Z,20.80
2023-01-05T06:40:14.457Z,20.80
2023-01-05T06:42:43.066Z,20.80
2023-01-05T06:45:15.741Z,20.80
2023-01-05T06:47:44.899Z,20.80
2023-01-05T06:50:12.732Z,20.80
2023-01-05T06:52:40.429Z,20.80
2023-01-05T06:55:14.350Z,20.80
2023-01-05T06:57:41.745Z,20.80
2023-01-05T07:00:11.892Z,20.80
2023-01-05T07:02:39.544Z,20.80
2023-01-05T07:05:08.340Z,20.80
2023-01-05T07:07:36.514Z,20.80
2023-01-05T07:10:05.029Z,20.80
2023-01-05T07:12:32.707Z,20.80
2023-01-05T07:15:00.193Z,20.80
2023-01-05T07:17:27.731Z,20.80
2023-01-05T07:19:56.048Z,20.80
2023-01-05T07:22:23.829Z,20.80
2023-01-05T07:24:51.487Z,20.80
2023-01-05T07:27:18.837Z,20.80
2023-01-05T07:29:46.222Z,20.90
2023-01-05T07:32:13.922Z,20.80
2023-01-05T07:34:41.414Z,20.80
2023-01-05T07:37:08.789Z,20.80
2023-01-05T07:39:36.226Z,20.80
2023-01-05T07:42:03.839Z,20.80
2023-01-05T07:44:31.851Z,20.80
2023-01-05T07:46:59.388Z,20.90
2023-01-05T07:49:26.847Z,20.90
2023-01-05T07:51:54.376Z,20.90
2023-01-05T07:54:21.811Z,20.90
2023-01-05T07:56:49.426Z,20.90
2023-01-05T07:59:16.816Z,20.90
2023-01-05T08:01:44.712Z,20.80
2023-01-05T08:04:12.403Z,20.90
2023-01-05T08:06:39.844Z,20.90
2023-01-05T08:09:25.953Z,20.90
2023-01-05T08:11:53.725Z,20.90
2023-01-05T08:14:21.450Z,20.90
2023-01-05T08:16:49.074Z,20.90
2023-01-05T08:19:16.520Z,20.90
2023-01-05T08:21:44.179Z,20.90
2023-01-05T08:24:11.684Z,20.90
2023-01-05T08:26:39.383Z,21.00
2023-01-05T08:29:06.930Z,21.00
2023-01-05T08:31:37.804Z,21.00
2023-01-05T08:34:06.498Z,21.00
2023-01-05T08:36:34.509Z,21.00
2023-01-05T08:39:01.985Z,21.00
2023-01-05T08:41:35.977Z,21.00
2023-01-05T08:44:08.228Z,21.00
2023-01-05T08:46:36.745Z,21.00
2023-01-05T08:49:07.027Z,21.00
2023-01-05T08:51:34.699Z,21.00
2023-01-05T08:54:02.656Z,21.00
2023-01-05T08:56:38.107Z,21.10
2023-01-05T08:59:06.512Z,21.10
2023-01-05T09:01:34.663Z,21.10
2023-01-05T09:04:02.791Z,21.10
2023-01-05T09:06:30.507Z,21.10
2023-01-05T09:08:57.969Z,21.10
2023-01-05T09:11:26.446Z,21.10
2023-01-05T09:13:57.843Z,21.10
2023-01-05T09:19:17.300Z,21.20
2023-01-05T09:21:44.878Z,21.20
2023-01-05T09:24:13.442Z,21.20
2023-01-05T09:26:42.741Z,21.20
2023-01-05T09:29:12.235Z,21.20
2023-01-05T09:31:42.103Z,21.20
2023-01-05T09:34:10.644Z,21.20
2023-01-05T09:36:41.525Z,21.20
2023-01-05T09:39:09.829Z,21.20
2023-01-05T09:41:54.449Z,21.20
2023-01-05T09:44:51.535Z,21.20
2023-01-05T09:47:39.222Z,21.20
2023-01-05T09:50:34.094Z,21.30
2023-01-05T09:53:01.891Z,21.20
2023-01-05T09:55:32.061Z,21.20
2023-01-05T09:58:11.019Z,21.20
2023-01-05T10:00:44.962Z,21.30
2023-01-05T10:03:53.760Z,21.20
2023-01-05T10:06:15.204Z,21.20
2023-01-05T10:08:50.655Z,21.20
2023-01-05T10:11:57.218Z,21.30
2023-01-05T10:14:44.622Z,21.20
2023-01-05T10:20:30.265Z,21.30
2023-01-05T10:23:53.590Z,21.30
2023-01-05T10:27:13.999Z,21.30
2023-01-05T10:29:48.436Z,21.30
2023-01-05T10:33:25.252Z,21.30
2023-01-05T10:36:28.018Z,21.30
2023-01-05T10:39:27.538Z,21.30
2023-01-05T10:42:16.205Z,21.30
2023-01-05T10:44:56.374Z,21.30
2023-01-05T10:47:27.612Z,21.30
2023-01-05T10:49:55.272Z,21.30
2023-01-05T10:52:24.421Z,21.30
2023-01-05T10:54:58.482Z,21.30
2023-01-05T10:57:37.602Z,21.30
2023-01-05T11:00:14.196Z,21.30
2023-01-05T11:03:08.563Z,21.30
2023-01-05T11:05:45.695Z,21.30
2023-01-05T11:08:20.126Z,21.40
2023-01-05T11:11:06.097Z,21.30
2023-01-05T11:13:40.589Z,21.40
2023-01-05T11:16:13.707Z,21.30
2023-01-05T11:18:54.013Z,21.30
2023-01-05T11:21:43.541Z,21.30
2023-01-05T11:24:34.511Z,21.30
2023-01-05T11:27:24.853Z,21.30
2023-01-05T11:30:21.721Z,21.30
2023-01-05T11:32:49.173Z,21.30
2023-01-05T11:35:28.489Z,21.30
2023-01-05T11:37:57.491Z,21.30
2023-01-05T11:40:31.004Z,21.30
2023-01-05T11:43:00.393Z,21.30
2023-01-05T11:45:38.573Z,21.30
2023-01-05T11:48:08.984Z,21.40
2023-01-05T11:51:03.071Z,21.40
2023-01-05T11:53:39.229Z,21.40
2023-01-05T11:56:18.642Z,21.40
2023-01-05T11:58:49.543Z,21.40
2023-01-05T12:01:29.581Z,21.40
2023-01-05T12:04:21.928Z,21.30
2023-01-05T12:07:21.327Z,21.40
2023-01-05T12:09:59.827Z,21.40
2023-01-05T12:12:45.097Z,21.40
2023-01-05T12:15:37.486Z,21.30
2023-01-05T12:18:35.396Z,21.30
2023-01-05T12:21:38.445Z,21.30
2023-01-05T12:24:08.760Z,21.30
2023-01-05T12:26:49.925Z,21.30
2023-01-05T12:36:08.373Z,21.30
2023-01-05T12:38:55.209Z,21.30
2023-01-05T12:41:48.553Z,21.30
2023-01-05T12:44:52.385Z,21.30
2023-01-05T12:48:03.644Z,21.30
2023-01-05T12:51:19.252Z,21.30
2023-01-05T12:54:06.606Z,21.30
2023-01-05T12:56:47.127Z,21.30
2023-01-05T12:59:29.457Z,21.30
2023-01-05T13:02:21.379Z,21.30
2023-01-05T13:05:35.636Z,21.30
2023-01-05T13:08:05.964Z,21.30
2023-01-05T13:10:50.299Z,21.30
2023-01-05T13:13:39.723Z,21.30
2023-01-05T13:16:39.386Z,21.30
2023-01-05T13:19:19.499Z,21.30
2023-01-05T13:21:51.597Z,21.30
2023-01-05T13:24:39.947Z,21.30
2023-01-05T13:27:07.543Z,21.30
2023-01-05T13:29:43.765Z,21.30
2023-01-05T13:32:22.956Z,21.30
2023-01-05T13:35:43.446Z,21.30
2023-01-05T13:38:40.647Z,21.40
2023-01-05T13:41:44.240Z,21.30
2023-01-05T13:44:42.708Z,21.40
2023-01-05T13:47:28.567Z,21.30
2023-01-05T13:50:56.162Z,21.40
2023-01-05T13:53:26.481Z,21.40
2023-01-05T13:56:01.629Z,21.40
2023-01-05T13:58:50.188Z,21.40
2023-01-05T14:01:41.903Z,21.40
2023-01-05T14:04:27.375Z,21.40
2023-01-05T14:07:04.570Z,21.50
2023-01-05T14:10:03.388Z,21.40
2023-01-05T14:12:50.172Z,21.40
2023-01-05T14:15:39.427Z,21.50
2023-01-05T14:18:52.388Z,21.50
2023-01-05T14:21:51.387Z,21.50
2023-01-05T14:24:37.299Z,21.50
2023-01-05T14:27:24.063Z,21.50
2023-01-05T14:29:54.298Z,21.40
2023-01-05T14:32:43.731Z,21.50
2023-01-05T14:35:23.902Z,21.50
2023-01-05T14:38:01.439Z,21.50
2023-01-05T14:40:39.431Z,21.40
2023-01-05T14:43:24.319Z,21.50
2023-01-05T14:46:09.991Z,21.40
2023-01-05T14:48:47.722Z,21.50
2023-01-05T14:51:26.563Z,21.50
2023-01-05T14:54:03.574Z,21.50
2023-01-05T14:56:35.307Z,21.50
2023-01-05T14:59:26.318Z,21.50
2023-01-05T15:01:57.318Z,21.50
2023-01-05T15:04:38.423Z,21.60
2023-01-05T15:10:41.679Z,21.60
2023-01-05T15:13:33.195Z,21.60
2023-01-05T15:16:57.231Z,21.60
2023-01-05T15:20:01.422Z,21.60
2023-01-05T15:22:50.650Z,21.60
2023-01-05T15:25:40.864Z,21.60
2023-01-05T15:28:22.564Z,21.60
2023-01-05T15:31:14.948Z,21.60
2023-01-05T15:34:07.301Z,21.60
2023-01-05T15:36:54.023Z,21.70
2023-01-05T15:39:58.315Z,21.70
2023-01-05T15:42:46.677Z,21.70
2023-01-05T15:45:33.178Z,21.70
2023-01-05T15:48:26.613Z,21.70
2023-01-05T15:50:58.574Z,21.70
2023-01-05T15:53:35.634Z,21.70
2023-01-05T15:56:05.555Z,21.70
2023-01-05T15:58:46.870Z,21.70
2023-01-05T16:01:16.684Z,21.70
2023-01-05T16:03:47.066Z,21.70
2023-01-05T16:06:22.441Z,21.70
2023-01-05T16:08:56.206Z,21.70
2023-01-05T16:11:40.052Z,21.70
2023-01-05T16:14:36.626Z,21.70
2023-01-05T16:17:16.023Z,21.70
2023-01-05T16:19:53.365Z,21.70
2023-01-05T16:22:27.610Z,21.70
2023-01-05T16:25:17.403Z,21.80
2023-01-05T16:27:50.134Z,21.70
2023-01-05T16:30:48.701Z,21.80
2023-01-05T16:33:35.145Z,21.80
2023-01-05T16:36:23.127Z,21.70
2023-01-05T16:38:50.566Z,21.80
2023-01-05T16:41:26.943Z,21.80
2023-01-05T16:44:03.975Z,21.70
2023-01-05T16:46:39.854Z,21.70
2023-01-05T16:49:27.735Z,21.80
2023-01-05T16:52:02.239Z,21.80
2023-01-05T16:54:40.937Z,21.80
2023-01-05T16:57:41.153Z,21.80
2023-01-05T17:00:36.997Z,21.80
2023-01-05T17:03:32.351Z,21.80
2023-01-05T17:06:01.558Z,21.80
2023-01-05T17:08:32.021Z,21.80
2023-01-05T17:11:01.012Z,21.80
2023-01-05T17:13:38.153Z,21.80
2023-01-05T17:16:06.222Z,21.80
2023-01-05T17:18:33.598Z,21.80
2023-01-05T17:21:03.903Z,21.80
2023-01-05T17:23:47.561Z,21.80
2023-01-05T17:26:33.278Z,21.80
2023-01-05T17:31:35.761Z,21.90
2023-01-05T17:34:03.545Z,21.90
2023-01-05T17:36:34.843Z,21.90
2023-01-05T17:39:03.200Z,21.90
2023-01-05T17:41:30.935Z,22.00
2023-01-05T17:43:59.090Z,22.10
2023-01-05T17:46:32.435Z,22.10
2023-01-05T17:49:00.871Z,22.20
2023-01-05T17:51:30.355Z,22.30
2023-01-05T17:54:01.125Z,22.40
2023-01-05T17:59:05.157Z,22.50
2023-01-05T18:01:36.178Z,22.60
2023-01-05T18:04:04.161Z,22.60
2023-01-05T18:06:31.780Z,22.60
2023-01-05T18:08:59.366Z,22.70
2023-01-05T18:11:26.908Z,22.80
2023-01-05T18:13:54.471Z,22.90
2023-01-05T18:16:22.184Z,22.90
2023-01-05T18:18:49.894Z,23.00
2023-01-05T18:21:17.455Z,23.10
2023-01-05T18:23:44.874Z,23.10
2023-01-05T18:26:12.435Z,23.20
2023-01-05T18:28:39.929Z,23.20
2023-01-05T18:31:15.237Z,23.20
2023-01-05T18:33:42.981Z,23.30
2023-01-05T18:36:14.055Z,23.40
2023-01-05T18:38:42.924Z,23.40
2023-01-05T18:41:11.653Z,23.50
2023-01-05T18:43:39.591Z,23.50
2023-01-05T18:46:07.361Z,23.60
2023-01-05T18:48:35.124Z,23.60
2023-01-05T18:51:09.534Z,23.50
2023-01-05T18:53:40.192Z,23.60
2023-01-05T18:56:10.052Z,23.70
2023-01-05T18:58:38.081Z,23.70
2023-01-05T19:01:18.780Z,23.60
2023-01-05T19:03:47.027Z,23.70
2023-01-05T19:06:17.622Z,23.70
2023-01-05T19:08:48.995Z,23.70
2023-01-05T19:11:28.027Z,23.80
2023-01-05T19:14:00.640Z,23.90
2023-01-05T19:16:34.286Z,23.90
2023-01-05T19:19:08.597Z,23.90
2023-01-05T19:21:41.700Z,24.00
2023-01-05T19:24:20.597Z,24.00
2023-01-05T19:26:51.991Z,24.00
2023-01-05T19:29:21.496Z,24.00
2023-01-05T19:31:49.779Z,24.00
2023-01-05T19:34:19.821Z,24.10
2023-01-05T19:36:48.229Z,24.10
2023-01-05T19:39:19.633Z,24.10
2023-01-05T19:41:49.375Z,24.10
2023-01-05T19:44:19.653Z,24.10
2023-01-05T19:46:49.373Z,24.10
2023-01-05T19:49:26.109Z,24.10
2023-01-05T19:51:54.741Z,24.10
2023-01-05T19:54:24.225Z,24.10
2023-01-05T19:56:53.121Z,24.20
2023-01-05T19:59:26.354Z,24.20
2023-01-05T20:01:55.037Z,24.10
2023-01-05T20:04:22.475Z,24.10
2023-01-05T20:06:49.916Z,24.10
2023-01-05T20:09:19.615Z,24.10
2023-01-05T20:11:51.629Z,24.10
2023-01-05T20:14:28.230Z,24.10
2023-01-05T20:17:02.320Z,24.10
2023-01-05T20:19:32.750Z,24.20
2023-01-05T20:22:03.431Z,24.10
2023-01-05T20:24:33.659Z,24.20
2023-01-05T20:27:09.036Z,24.20
2023-01-05T20:29:37.568Z,24.20
2023-01-05T20:32:16.728Z,24.20
2023-01-05T20:34:52.081Z,24.20
2023-01-05T20:37:20.698Z,24.20
2023-01-05T20:39:51.446Z,24.10
2023-01-05T20:42:19.299Z,24.10
2023-01-05T20:44:48.358Z,24.10
2023-01-05T20:47:16.851Z,24.10
2023-01-05T20:49:48.361Z,24.10
2023-01-05T20:52:17.979Z,24.10
2023-01-05T20:54:45.770Z,24.10
2023-01-05T20:57:15.015Z,24.10
2023-01-05T20:59:42.535Z,24.10
2023-01-05T21:02:23.121Z,24.20
2023-01-05T21:04:53.426Z,24.20
2023-01-05T21:07:21.947Z,24.20
2023-01-05T21:09:51.612Z,24.20
2023-01-05T21:12:20.895Z,24.20
2023-01-05T21:14:48.627Z,24.20
2023-01-05T21:17:16.884Z,24.20
2023-01-05T21:19:47.786Z,24.20
2023-01-05T21:22:15.984Z,24.20
2023-01-05T21:24:45.639Z,24.20
2023-01-05T21:27:13.176Z,24.20
2023-01-05T21:29:40.619Z,24.20
2023-01-05T21:32:08.481Z,24.30
2023-01-05T21:34:36.195Z,24.20
2023-01-05T21:37:03.690Z,24.30
2023-01-05T21:39:31.115Z,24.30
2023-01-05T21:42:19.756Z,24.30
2023-01-05T21:44:48.307Z,24.20
2023-01-05T21:47:15.707Z,24.20
2023-01-05T21:49:43.073Z,24.20
2023-01-05T21:52:29.653Z,24.20
2023-01-05T21:55:15.720Z,24.20
2023-01-05T21:57:43.068Z,24.20
2023-01-05T22:00:13.076Z,24.20
2023-01-05T22:02:40.628Z,24.30
2023-01-05T22:05:08.838Z,24.30
2023-01-05T22:07:36.562Z,24.30
2023-01-05T22:10:05.278Z,24.30
2023-01-05T22:12:32.736Z,24.30
2023-01-05T22:15:00.075Z,24.40
2023-01-05T22:17:30.763Z,24.40
2023-01-05T22:19:58.450Z,24.40
2023-01-05T22:22:26.053Z,24.50
2023-01-05T22:24:53.677Z,24.50
2023-01-05T22:27:21.216Z,24.50
2023-01-05T22:29:48.936Z,24.60
2023-01-05T22:32:22.229Z,24.60
2023-01-05T22:34:49.673Z,24.60
2023-01-05T22:37:17.220Z,24.60
2023-01-05T22:39:44.605Z,24.70
2023-01-05T22:42:12.317Z,24.70
2023-01-05T22:44:39.825Z,24.70
2023-01-05T22:47:07.804Z,24.80
2023-01-05T22:49:35.587Z,24.70
2023-01-05T22:52:03.523Z,24.80
2023-01-05T22:54:31.968Z,24.80
2023-01-05T22:56:59.612Z,24.80
2023-01-05T22:59:28.558Z,24.80
2023-01-05T23:01:56.117Z,24.90
2023-01-05T23:04:23.808Z,24.90
2023-01-05T23:06:51.253Z,24.90
2023-01-05T23:09:20.319Z,24.80
2023-01-05T23:11:48.267Z,24.80
2023-01-05T23:14:18.680Z,24.80
2023-01-05T23:16:47.580Z,24.80
2023-01-05T23:19:17.151Z,24.80
2023-01-05T23:21:45.615Z,24.70
2023-01-05T23:24:13.161Z,24.80
2023-01-05T23:26:40.820Z,24.80
2023-01-05T23:29:10.787Z,24.80
2023-01-05T23:31:38.319Z,24.80
2023-01-05T23:34:06.099Z,24.80
2023-01-05T23:36:33.858Z,24.80
2023-01-05T23:39:01.431Z,24.80
2023-01-05T23:41:29.120Z,24.80
2023-01-05T23:43:56.805Z,24.70
2023-01-05T23:46:24.476Z,24.70
2023-01-05T23:48:53.249Z,24.70
2023-01-05T23:51:21.467Z,24.70
2023-01-05T23:53:51.674Z,24.70
2023-01-05T23:56:25.988Z,24.70
2023-01-05T23:59:08.260Z,24.70
